createdAt,value
2023-03-14T00:01:27.297Z,100.00
2023-03-14T00:03:56.246Z,100.00
2023-03-14T00:06:25.600Z,100.00
2023-03-14T00:08:55.869Z,100.00
2023-03-14T00:11:24.435Z,100.00
2023-03-14T00:13:53.528Z,100.00
2023-03-14T00:16:22.895Z,100.00
2023-03-14T00:18:51.791Z,100.00
2023-03-14T00:21:21.199Z,100.00
2023-03-14T00:23:50.284Z,100.00
2023-03-14T00:26:22.097Z,100.00
2023-03-14T00:28:54.381Z,100.00
2023-03-14T00:31:23.425Z,100.00
2023-03-14T00:33:54.146Z,100.00
2023-03-14T00:36:23.686Z,100.00
2023-03-14T00:38:53.526Z,100.00
2023-03-14T00:41:25.231Z,100.00
2023-03-14T00:43:54.183Z,100.00
2023-03-14T00:46:23.259Z,100.00
2023-03-14T00:48:52.196Z,100.00
2023-03-14T00:51:21.042Z,100.00
2023-03-14T00:53:50.391Z,100.00
2023-03-14T00:56:19.280Z,100.00
2023-03-14T00:58:49.252Z,100.00
2023-03-14T01:01:19.689Z,100.00
2023-03-14T01:03:48.924Z,100.00
2023-03-14T01:06:20.530Z,100.00
2023-03-14T01:08:49.879Z,100.00
2023-03-14T01:11:21.266Z,100.00
2023-03-14T01:13:51.619Z,100.00
2023-03-14T01:16:22.561Z,100.00
2023-03-14T01:18:51.831Z,100.00
2023-03-14T01:21:22.563Z,100.00
2023-03-14T01:23:52.088Z,100.00
2023-03-14T01:26:24.516Z,100.00
2023-03-14T01:28:56.020Z,100.00
2023-03-14T01:31:26.270Z,100.00
2023-03-14T01:33:55.249Z,100.00
2023-03-14T01:36:24.180Z,100.00
2023-03-14T01:38:53.534Z,100.00
2023-03-14T01:41:24.735Z,100.00
2023-03-14T01:43:56.405Z,100.00
2023-03-14T01:46:33.308Z,100.00
2023-03-14T01:49:07.070Z,100.00
2023-03-14T01:51:40.929Z,100.00
2023-03-14T01:54:14.209Z,100.00
2023-03-14T01:56:43.826Z,100.00
2023-03-14T01:59:14.412Z,100.00
2023-03-14T02:01:45.935Z,100.00
2023-03-14T02:04:15.479Z,100.00
2023-03-14T02:06:51.706Z,100.00
2023-03-14T02:09:23.116Z,100.00
2023-03-14T02:11:53.298Z,100.00
2023-03-14T02:14:49.102Z,100.00
2023-03-14T02:17:26.652Z,100.00
2023-03-14T02:20:23.996Z,100.00
2023-03-14T02:22:57.844Z,100.00
2023-03-14T02:25:35.487Z,100.00
2023-03-14T02:28:05.964Z,100.00
2023-03-14T02:30:36.470Z,100.00
2023-03-14T02:33:07.004Z,100.00
2023-03-14T02:35:40.424Z,100.00
2023-03-14T02:38:13.978Z,100.00
2023-03-14T02:40:46.186Z,100.00
2023-03-14T02:43:16.761Z,100.00
2023-03-14T02:45:52.235Z,100.00
2023-03-14T02:48:25.907Z,100.00
2023-03-14T02:50:57.106Z,100.00
2023-03-14T02:53:28.496Z,100.00
2023-03-14T02:55:59.556Z,100.00
2023-03-14T02:58:31.336Z,100.00
2023-03-14T03:01:08.945Z,100.00
2023-03-14T03:03:38.789Z,100.00
2023-03-14T03:06:08.408Z,100.00
2023-03-14T03:08:37.299Z,100.00
2023-03-14T03:11:07.504Z,100.00
2023-03-14T03:13:38.361Z,100.00
2023-03-14T03:16:09.171Z,100.00
2023-03-14T03:18:38.083Z,100.00
2023-03-14T03:21:09.980Z,100.00
2023-03-14T03:23:39.051Z,100.00
2023-03-14T03:26:08.663Z,100.00
2023-03-14T03:28:38.662Z,100.00
2023-03-14T03:31:11.842Z,100.00
2023-03-14T03:33:41.653Z,100.00
2023-03-14T03:36:11.942Z,100.00
2023-03-14T03:38:42.336Z,100.00
2023-03-14T03:41:12.735Z,100.00
2023-03-14T03:43:42.850Z,100.00
2023-03-14T03:46:17.558Z,100.00
2023-03-14T03:48:46.781Z,100.00
2023-03-14T03:51:15.879Z,100.00
2023-03-14T03:53:45.668Z,100.00
2023-03-14T03:56:17.962Z,100.00
2023-03-14T03:58:48.304Z,100.00
2023-03-14T04:01:17.186Z,100.00
2023-03-14T04:03:50.076Z,100.00
2023-03-14T04:06:20.482Z,100.00
2023-03-14T04:08:51.633Z,100.00
2023-03-14T04:11:46.921Z,100.00
2023-03-14T04:14:23.265Z,100.00
2023-03-14T04:17:01.464Z,100.00
2023-03-14T04:19:30.381Z,100.00
2023-03-14T04:21:59.249Z,100.00
2023-03-14T04:24:33.169Z,100.00
2023-03-14T04:27:02.346Z,100.00
2023-03-14T04:29:32.801Z,100.00
2023-03-14T04:32:02.236Z,100.00
2023-03-14T04:34:30.966Z,100.00
2023-03-14T04:37:00.373Z,100.00
2023-03-14T04:39:36.418Z,100.00
2023-03-14T04:42:12.679Z,100.00
2023-03-14T04:44:44.502Z,100.00
2023-03-14T04:47:15.154Z,100.00
2023-03-14T04:49:45.049Z,100.00
2023-03-14T04:52:16.792Z,100.00
2023-03-14T04:54:45.785Z,100.00
2023-03-14T04:57:14.635Z,100.00
2023-03-14T04:59:45.379Z,100.00
2023-03-14T05:02:34.734Z,100.00
2023-03-14T05:05:19.104Z,100.00
2023-03-14T05:08:10.519Z,100.00
2023-03-14T05:11:03.938Z,100.00
2023-03-14T05:13:58.916Z,100.00
2023-03-14T05:17:07.594Z,100.00
2023-03-14T05:19:59.597Z,100.00
2023-03-14T05:22:37.868Z,100.00
2023-03-14T05:25:19.739Z,100.00
2023-03-14T05:28:13.928Z,100.00
2023-03-14T05:30:56.876Z,100.00
2023-03-14T05:33:47.478Z,100.00
2023-03-14T05:36:36.683Z,100.00
2023-03-14T05:39:24.650Z,100.00
2023-03-14T05:41:56.996Z,100.00
2023-03-14T05:44:46.207Z,100.00
2023-03-14T05:47:31.981Z,100.00
2023-03-14T05:50:18.523Z,100.00
2023-03-14T05:53:16.120Z,100.00
2023-03-14T05:55:45.046Z,100.00
2023-03-14T05:58:22.092Z,100.00
2023-03-14T06:00:52.354Z,100.00
2023-03-14T06:03:41.597Z,100.00
2023-03-14T06:06:13.045Z,100.00
2023-03-14T06:08:41.709Z,100.00
2023-03-14T06:11:12.842Z,100.00
2023-03-14T06:13:41.462Z,100.00
2023-03-14T06:16:11.614Z,100.00
2023-03-14T06:18:40.575Z,100.00
2023-03-14T06:21:13.048Z,100.00
2023-03-14T06:23:42.105Z,100.00
2023-03-14T06:26:12.735Z,100.00
2023-03-14T06:28:41.396Z,100.00
2023-03-14T06:31:11.370Z,100.00
2023-03-14T06:33:49.476Z,100.00
2023-03-14T06:36:20.237Z,100.00
2023-03-14T06:38:50.450Z,100.00
2023-03-14T06:41:19.935Z,100.00
2023-03-14T06:43:50.642Z,100.00
2023-03-14T06:46:20.184Z,97.63
2023-03-14T06:48:50.067Z,94.45
2023-03-14T06:51:20.672Z,94.42
2023-03-14T06:53:51.105Z,91.54
2023-03-14T06:56:23.076Z,94.42
2023-03-14T06:58:51.934Z,90.23
2023-03-14T07:01:25.598Z,93.34
2023-03-14T07:03:56.172Z,95.18
2023-03-14T07:06:27.406Z,94.75
2023-03-14T07:08:56.305Z,87.06
2023-03-14T07:11:26.691Z,86.75
2023-03-14T07:13:55.576Z,85.59
2023-03-14T07:16:24.506Z,87.33
2023-03-14T07:18:54.384Z,89.21
2023-03-14T07:21:23.197Z,89.62
2023-03-14T07:23:53.587Z,89.58
2023-03-14T07:26:22.236Z,82.32
2023-03-14T07:28:53.396Z,78.25
2023-03-14T07:31:24.570Z,72.40
2023-03-14T07:33:54.711Z,75.05
2023-03-14T07:36:25.313Z,77.97
2023-03-14T07:38:55.693Z,76.86
2023-03-14T07:41:39.216Z,73.43
2023-03-14T07:44:26.850Z,74.69
2023-03-14T07:46:56.919Z,70.60
2023-03-14T07:49:25.926Z,67.16
2023-03-14T07:51:55.064Z,64.42
2023-03-14T07:54:25.977Z,66.85
2023-03-14T07:56:54.855Z,68.21
2023-03-14T07:59:23.814Z,69.80
2023-03-14T08:01:52.453Z,72.76
2023-03-14T08:04:21.374Z,66.77
2023-03-14T08:06:50.364Z,67.35
2023-03-14T08:09:19.290Z,67.73
2023-03-14T08:11:49.532Z,78.56
2023-03-14T08:14:18.265Z,75.12
2023-03-14T08:16:46.751Z,73.24
2023-03-14T08:19:15.716Z,78.39
2023-03-14T08:21:44.604Z,80.78
2023-03-14T08:24:13.561Z,81.60
2023-03-14T08:26:42.534Z,80.67
2023-03-14T08:29:14.069Z,83.64
2023-03-14T08:31:42.964Z,79.66
2023-03-14T08:34:11.950Z,73.22
2023-03-14T08:36:41.107Z,75.34
2023-03-14T08:39:10.657Z,79.75
2023-03-14T08:41:42.265Z,75.30
2023-03-14T08:44:13.769Z,73.35
2023-03-14T08:46:42.504Z,76.37
2023-03-14T08:49:11.560Z,75.60
2023-03-14T08:51:41.018Z,72.96
2023-03-14T08:54:12.747Z,71.20
2023-03-14T08:56:42.462Z,70.45
2023-03-14T08:59:13.151Z,74.81
2023-03-14T09:01:41.398Z,69.18
2023-03-14T09:04:10.906Z,70.66
2023-03-14T09:06:39.895Z,73.00
2023-03-14T09:09:08.885Z,73.49
2023-03-14T09:11:39.048Z,72.59
2023-03-14T09:14:08.048Z,74.73
2023-03-14T09:16:38.036Z,75.17
2023-03-14T09:19:06.983Z,75.24
2023-03-14T09:21:36.049Z,76.83
2023-03-14T09:24:05.232Z,73.50
2023-03-14T09:26:34.257Z,74.76
2023-03-14T09:29:03.483Z,72.28
2023-03-14T09:31:32.270Z,72.90
2023-03-14T09:34:02.562Z,69.88
2023-03-14T09:36:31.288Z,69.65
2023-03-14T09:39:00.192Z,71.06
2023-03-14T09:41:31.470Z,72.44
2023-03-14T09:44:05.417Z,70.50
2023-03-14T09:46:35.184Z,68.69
2023-03-14T09:49:12.532Z,68.83
2023-03-14T09:51:42.139Z,64.25
2023-03-14T09:54:20.712Z,68.81
2023-03-14T09:56:49.871Z,64.33
2023-03-14T09:59:18.948Z,60.58
2023-03-14T10:01:47.520Z,59.02
2023-03-14T10:04:21.596Z,57.36
2023-03-14T10:06:50.644Z,55.92
2023-03-14T10:09:26.315Z,58.42
2023-03-14T10:11:57.530Z,59.35
2023-03-14T10:14:36.237Z,60.67
2023-03-14T10:17:10.952Z,63.68
2023-03-14T10:19:53.340Z,63.42
2023-03-14T10:22:22.941Z,59.99
2023-03-14T10:24:55.121Z,59.34
2023-03-14T10:27:29.684Z,60.09
2023-03-14T10:30:00.029Z,63.45
2023-03-14T10:32:34.547Z,61.90
2023-03-14T10:35:22.932Z,63.10
2023-03-14T10:37:55.455Z,62.23
2023-03-14T10:40:28.937Z,58.15
2023-03-14T10:42:58.230Z,59.08
2023-03-14T10:45:45.027Z,57.16
2023-03-14T10:48:24.545Z,55.64
2023-03-14T10:50:59.835Z,50.64
2023-03-14T10:53:28.867Z,52.03
2023-03-14T10:55:58.324Z,51.27
2023-03-14T10:58:31.049Z,50.11
2023-03-14T11:01:10.678Z,54.09
2023-03-14T11:03:40.644Z,54.36
2023-03-14T11:06:14.601Z,54.60
2023-03-14T11:08:49.263Z,54.80
2023-03-14T11:11:22.996Z,59.38
2023-03-14T11:14:03.277Z,64.54
2023-03-14T11:16:39.159Z,66.57
2023-03-14T11:19:22.787Z,67.77
2023-03-14T11:21:57.368Z,69.31
2023-03-14T11:24:34.946Z,68.52
2023-03-14T11:27:09.930Z,72.88
2023-03-14T11:29:42.423Z,72.48
2023-03-14T11:32:16.348Z,72.67
2023-03-14T11:34:50.404Z,71.13
2023-03-14T11:37:26.313Z,70.11
2023-03-14T11:40:02.030Z,69.05
2023-03-14T11:42:32.433Z,67.68
2023-03-14T11:45:01.124Z,66.39
2023-03-14T11:47:32.371Z,58.32
2023-03-14T11:50:05.746Z,57.36
2023-03-14T11:52:39.581Z,58.52
2023-03-14T11:55:13.495Z,60.98
2023-03-14T11:57:42.767Z,62.86
2023-03-14T12:00:19.088Z,63.15
2023-03-14T12:02:52.550Z,65.87
2023-03-14T12:05:43.232Z,69.29
2023-03-14T12:08:48.210Z,68.19
2023-03-14T12:11:22.882Z,66.35
2023-03-14T12:13:53.268Z,67.31
2023-03-14T12:16:30.107Z,67.18
2023-03-14T12:18:59.192Z,70.76
2023-03-14T12:21:46.709Z,71.43
2023-03-14T12:24:20.850Z,70.85
2023-03-14T12:26:56.009Z,72.59
2023-03-14T12:29:25.175Z,74.89
2023-03-14T12:32:09.901Z,79.22
2023-03-14T12:34:43.449Z,80.59
2023-03-14T12:37:22.519Z,85.48
2023-03-14T12:40:02.322Z,83.76
2023-03-14T12:42:45.510Z,84.08
2023-03-14T12:45:32.908Z,86.39
2023-03-14T12:48:11.912Z,86.76
2023-03-14T12:50:44.877Z,89.88
2023-03-14T12:54:07.090Z,89.88
2023-03-14T12:56:47.588Z,94.08
2023-03-14T12:59:35.355Z,99.30
2023-03-14T13:02:24.498Z,100.00
2023-03-14T13:04:56.137Z,100.00
2023-03-14T13:08:05.996Z,100.00
2023-03-14T13:10:44.142Z,100.00
2023-03-14T13:13:21.188Z,100.00
2023-03-14T13:15:59.231Z,100.00
2023-03-14T13:18:34.285Z,100.00
2023-03-14T13:21:05.881Z,100.00
2023-03-14T13:23:36.291Z,100.00
2023-03-14T13:26:04.944Z,100.00
2023-03-14T13:28:33.817Z,100.00
2023-03-14T13:31:06.177Z,100.00
2023-03-14T13:33:35.959Z,100.00
2023-03-14T13:36:06.663Z,100.00
2023-03-14T13:38:37.886Z,100.00
2023-03-14T13:41:09.444Z,100.00
2023-03-14T13:43:39.416Z,100.00
2023-03-14T13:46:09.994Z,100.00
2023-03-14T13:48:44.459Z,100.00
2023-03-14T13:51:15.448Z,100.00
2023-03-14T13:53:48.226Z,100.00
2023-03-14T13:56:18.279Z,100.00
2023-03-14T13:58:47.073Z,100.00
2023-03-14T14:01:19.912Z,100.00
2023-03-14T14:03:52.338Z,100.00
2023-03-14T14:06:40.068Z,100.00
2023-03-14T14:09:14.875Z,100.00
2023-03-14T14:11:56.427Z,100.00
2023-03-14T14:14:34.828Z,100.00
2023-03-14T14:17:08.366Z,100.00
2023-03-14T14:19:38.333Z,100.00
2023-03-14T14:22:08.080Z,100.00
2023-03-14T14:24:39.156Z,100.00
2023-03-14T14:27:14.534Z,100.00
2023-03-14T14:29:43.647Z,100.00
2023-03-14T14:32:16.726Z,100.00
2023-03-14T14:34:50.753Z,100.00
2023-03-14T14:37:25.683Z,100.00
2023-03-14T14:39:58.947Z,100.00
2023-03-14T14:42:30.096Z,100.00
2023-03-14T14:45:00.851Z,100.00
2023-03-14T14:47:32.292Z,100.00
2023-03-14T14:50:03.484Z,100.00
2023-03-14T14:52:40.886Z,100.00
2023-03-14T14:55:19.736Z,100.00
2023-03-14T14:57:53.457Z,100.00
2023-03-14T15:00:25.787Z,100.00
2023-03-14T15:02:57.713Z,100.00
2023-03-14T15:05:28.295Z,100.00
2023-03-14T15:07:56.999Z,100.00
2023-03-14T15:10:26.982Z,100.00
2023-03-14T15:12:56.150Z,100.00
2023-03-14T15:15:25.535Z,100.00
2023-03-14T15:17:55.862Z,100.00
2023-03-14T15:20:24.837Z,100.00
2023-03-14T15:22:53.685Z,100.00
2023-03-14T15:25:47.267Z,100.00
2023-03-14T15:28:22.186Z,100.00
2023-03-14T15:30:52.934Z,100.00
2023-03-14T15:33:23.926Z,100.00
2023-03-14T15:35:53.470Z,100.00
2023-03-14T15:38:24.258Z,100.00
2023-03-14T15:40:52.882Z,100.00
2023-03-14T15:43:22.033Z,100.00
2023-03-14T15:45:51.681Z,100.00
2023-03-14T15:48:23.661Z,100.00
2023-03-14T15:50:53.580Z,100.00
2023-03-14T15:53:22.559Z,100.00
2023-03-14T15:55:51.965Z,100.00
2023-03-14T15:58:22.273Z,100.00
2023-03-14T16:00:51.756Z,100.00
2023-03-14T16:03:20.734Z,100.00
2023-03-14T16:05:51.266Z,100.00
2023-03-14T16:08:19.869Z,100.00
2023-03-14T16:10:48.566Z,100.00
2023-03-14T16:13:18.072Z,100.00
2023-03-14T16:15:56.276Z,100.00
2023-03-14T16:18:25.388Z,100.00
2023-03-14T16:20:57.362Z,100.00
2023-03-14T16:23:27.156Z,100.00
2023-03-14T16:25:56.682Z,100.00
2023-03-14T16:28:26.526Z,100.00
2023-03-14T16:31:02.364Z,100.00
2023-03-14T16:33:32.380Z,100.00
2023-03-14T16:36:06.469Z,100.00
2023-03-14T16:38:38.058Z,100.00
2023-03-14T16:41:08.506Z,100.00
2023-03-14T16:43:38.631Z,100.00
2023-03-14T16:46:08.802Z,100.00
2023-03-14T16:48:38.621Z,100.00
2023-03-14T16:51:09.795Z,100.00
2023-03-14T16:53:38.929Z,100.00
2023-03-14T16:56:08.962Z,100.00
2023-03-14T16:58:37.949Z,100.00
2023-03-14T17:01:10.484Z,100.00
2023-03-14T17:03:40.758Z,100.00
2023-03-14T17:06:12.963Z,100.00
2023-03-14T17:08:42.114Z,100.00
2023-03-14T17:11:11.313Z,100.00
2023-03-14T17:13:40.209Z,100.00
2023-03-14T17:16:10.203Z,100.00
2023-03-14T17:18:39.465Z,100.00
2023-03-14T17:21:08.537Z,100.00
2023-03-14T17:23:39.013Z,100.00
2023-03-14T17:26:08.064Z,100.00
2023-03-14T17:28:37.187Z,100.00
2023-03-14T17:31:07.806Z,100.00
2023-03-14T17:33:37.888Z,100.00
2023-03-14T17:36:07.998Z,100.00
2023-03-14T17:38:38.964Z,100.00
2023-03-14T17:41:09.905Z,100.00
2023-03-14T17:43:38.262Z,100.00
2023-03-14T17:46:11.901Z,100.00
2023-03-14T17:48:41.789Z,100.00
2023-03-14T17:51:11.159Z,100.00
2023-03-14T17:53:41.948Z,100.00
2023-03-14T17:56:11.883Z,100.00
2023-03-14T17:58:44.151Z,100.00
2023-03-14T18:01:16.753Z,100.00
2023-03-14T18:03:46.866Z,100.00
2023-03-14T18:06:17.666Z,100.00
2023-03-14T18:08:48.240Z,100.00
2023-03-14T18:11:17.440Z,100.00
2023-03-14T18:13:46.283Z,100.00
2023-03-14T18:16:16.325Z,100.00
2023-03-14T18:18:48.450Z,100.00
2023-03-14T18:21:17.772Z,100.00
2023-03-14T18:23:48.789Z,100.00
2023-03-14T18:26:17.892Z,100.00
2023-03-14T18:28:47.232Z,100.00
2023-03-14T18:31:20.160Z,100.00
2023-03-14T18:33:49.316Z,100.00
2023-03-14T18:36:18.459Z,100.00
2023-03-14T18:38:50.839Z,100.00
2023-03-14T18:41:21.224Z,100.00
2023-03-14T18:43:49.865Z,100.00
2023-03-14T18:46:20.790Z,100.00
2023-03-14T18:48:56.416Z,100.00
2023-03-14T18:51:26.426Z,100.00
2023-03-14T18:54:08.320Z,100.00
2023-03-14T18:56:40.416Z,100.00
2023-03-14T18:59:10.752Z,100.00
2023-03-14T19:01:39.608Z,100.00
2023-03-14T19:04:10.950Z,100.00
2023-03-14T19:06:40.305Z,100.00
2023-03-14T19:09:14.838Z,100.00
2023-03-14T19:11:44.702Z,100.00
2023-03-14T19:14:16.101Z,100.00
2023-03-14T19:16:44.772Z,100.00
2023-03-14T19:19:13.726Z,100.00
2023-03-14T19:21:42.816Z,100.00
2023-03-14T19:24:19.050Z,100.00
2023-03-14T19:26:48.020Z,100.00
2023-03-14T19:29:17.476Z,100.00
2023-03-14T19:31:46.156Z,100.00
2023-03-14T19:34:15.142Z,100.00
2023-03-14T19:36:44.240Z,100.00
2023-03-14T19:39:14.612Z,100.00
2023-03-14T19:41:43.196Z,100.00
2023-03-14T19:44:13.314Z,100.00
2023-03-14T19:46:41.892Z,100.00
2023-03-14T19:49:11.649Z,100.00
2023-03-14T19:51:42.049Z,100.00
2023-03-14T19:54:11.331Z,100.00
2023-03-14T19:56:41.826Z,100.00
2023-03-14T19:59:10.993Z,100.00
2023-03-14T20:01:39.638Z,100.00
2023-03-14T20:04:08.986Z,100.00
2023-03-14T20:06:37.873Z,100.00
2023-03-14T20:09:07.133Z,100.00
2023-03-14T20:11:40.689Z,100.00
2023-03-14T20:14:11.611Z,100.00
2023-03-14T20:16:41.306Z,100.00
2023-03-14T20:19:12.187Z,100.00
2023-03-14T20:21:41.082Z,100.00
2023-03-14T20:24:10.497Z,100.00
2023-03-14T20:26:39.493Z,100.00
2023-03-14T20:29:08.578Z,100.00
2023-03-14T20:31:40.350Z,100.00
2023-03-14T20:34:09.418Z,100.00
2023-03-14T20:36:38.494Z,100.00
2023-03-14T20:39:08.222Z,100.00
2023-03-14T20:41:42.257Z,100.00
2023-03-14T20:44:13.479Z,100.00
2023-03-14T20:46:45.293Z,100.00
2023-03-14T20:49:14.455Z,100.00
2023-03-14T20:51:43.741Z,100.00
2023-03-14T20:54:14.235Z,100.00
2023-03-14T20:56:46.384Z,100.00
2023-03-14T20:59:15.553Z,100.00
2023-03-14T21:01:47.948Z,100.00
2023-03-14T21:04:17.412Z,100.00
2023-03-14T21:06:47.213Z,100.00
2023-03-14T21:09:16.569Z,100.00
2023-03-14T21:11:47.570Z,100.00
2023-03-14T21:14:18.166Z,100.00
2023-03-14T21:16:48.343Z,100.00
2023-03-14T21:19:18.323Z,100.00
2023-03-14T21:21:47.500Z,100.00
2023-03-14T21:24:16.855Z,100.00
2023-03-14T21:26:46.882Z,100.00
2023-03-14T21:29:16.135Z,100.00
2023-03-14T21:31:44.909Z,100.00
2023-03-14T21:34:16.806Z,100.00
2023-03-14T21:36:47.176Z,100.00
2023-03-14T21:39:18.391Z,100.00
2023-03-14T21:41:47.305Z,100.00
2023-03-14T21:44:20.362Z,100.00
2023-03-14T21:46:49.211Z,100.00
2023-03-14T21:49:19.885Z,100.00
2023-03-14T21:51:49.643Z,100.00
2023-03-14T21:54:18.572Z,100.00
2023-03-14T21:56:47.794Z,100.00
2023-03-14T21:59:16.747Z,100.00
2023-03-14T22:01:45.440Z,100.00
2023-03-14T22:04:14.406Z,100.00
2023-03-14T22:06:44.998Z,100.00
2023-03-14T22:09:14.247Z,100.00
2023-03-14T22:11:43.196Z,100.00
2023-03-14T22:14:12.120Z,100.00
2023-03-14T22:16:40.700Z,100.00
2023-03-14T22:19:09.647Z,100.00
2023-03-14T22:21:38.562Z,100.00
2023-03-14T22:24:09.559Z,100.00
2023-03-14T22:26:38.568Z,100.00
2023-03-14T22:29:07.723Z,100.00
2023-03-14T22:31:36.519Z,100.00
2023-03-14T22:34:05.508Z,100.00
2023-03-14T22:36:34.503Z,100.00
2023-03-14T22:39:03.443Z,100.00
2023-03-14T22:41:34.243Z,100.00
2023-03-14T22:44:03.566Z,100.00
2023-03-14T22:46:32.163Z,100.00
2023-03-14T22:49:01.647Z,100.00
2023-03-14T22:51:30.595Z,100.00
2023-03-14T22:53:59.464Z,100.00
2023-03-14T22:56:28.413Z,100.00
2023-03-14T22:58:59.506Z,100.00
2023-03-14T23:01:29.234Z,100.00
2023-03-14T23:03:58.173Z,100.00
2023-03-14T23:06:27.133Z,100.00
2023-03-14T23:08:57.071Z,100.00
2023-03-14T23:11:26.633Z,100.00
2023-03-14T23:13:55.248Z,100.00
2023-03-14T23:16:37.654Z,100.00
2023-03-14T23:19:10.287Z,100.00
2023-03-14T23:21:39.364Z,100.00
2023-03-14T23:24:09.274Z,100.00
2023-03-14T23:26:39.408Z,100.00
2023-03-14T23:29:08.292Z,100.00
2023-03-14T23:31:39.047Z,100.00
2023-03-14T23:34:08.114Z,100.00
2023-03-14T23:36:37.693Z,100.00
2023-03-14T23:39:07.214Z,100.00
2023-03-14T23:41:36.820Z,100.00
2023-03-14T23:44:06.236Z,100.00
2023-03-14T23:46:37.147Z,100.00
2023-03-14T23:49:07.536Z,100.00
2023-03-14T23:51:36.678Z,100.00
2023-03-14T23:54:05.823Z,100.00
2023-03-14T23:56:34.980Z,100.00
2023-03-14T23:59:03.809Z,100.00
